sensor_id;sensor_type;location;lat;lon;timestamp;P1;durP1;ratioP1;P2;durP2;ratioP2
38693;SDS011;24447;43.460;25.744;2023-07-20T00:01:23;34.45;;;6.43;;
38693;SDS011;24447;43.460;25.744;2023-07-20T00:03:49;25.40;;;6.55;;
38693;SDS011;24447;43.460;25.744;2023-07-20T00:06:23;22.02;;;6.30;;
38693;SDS011;24447;43.460;25.744;2023-07-20T00:08:52;24.13;;;5.53;;
38693;SDS011;24447;43.460;25.744;2023-07-20T00:11:19;16.27;;;5.30;;
38693;SDS011;24447;43.460;25.744;2023-07-20T00:13:45;27.30;;;5.85;;
38693;SDS011;24447;43.460;25.744;2023-07-20T00:16:10;21.63;;;5.55;;
38693;SDS011;24447;43.460;25.744;2023-07-20T00:18:36;11.82;;;4.38;;
38693;SDS011;24447;43.460;25.744;2023-07-20T00:21:02;14.48;;;4.57;;
38693;SDS011;24447;43.460;25.744;2023-07-20T00:23:29;10.35;;;3.80;;
38693;SDS011;24447;43.460;25.744;2023-07-20T00:25:55;14.73;;;3.60;;
38693;SDS011;24447;43.460;25.744;2023-07-20T00:28:20;11.60;;;4.47;;
38693;SDS011;24447;43.460;25.744;2023-07-20T00:30:46;12.43;;;4.05;;
38693;SDS011;24447;43.460;25.744;2023-07-20T00:33:12;11.93;;;4.13;;
38693;SDS011;24447;43.460;25.744;2023-07-20T00:35:38;12.27;;;3.63;;
38693;SDS011;24447;43.460;25.744;2023-07-20T00:38:05;9.77;;;3.30;;
38693;SDS011;24447;43.460;25.744;2023-07-20T00:40:37;14.40;;;3.88;;
38693;SDS011;24447;43.460;25.744;2023-07-20T00:43:04;8.70;;;3.60;;
38693;SDS011;24447;43.460;25.744;2023-07-20T00:45:30;10.02;;;2.90;;
38693;SDS011;24447;43.460;25.744;2023-07-20T00:47:57;16.90;;;3.95;;
38693;SDS011;24447;43.460;25.744;2023-07-20T00:50:23;9.60;;;3.35;;
38693;SDS011;24447;43.460;25.744;2023-07-20T00:52:49;17.80;;;5.07;;
38693;SDS011;24447;43.460;25.744;2023-07-20T00:55:16;17.08;;;3.33;;
38693;SDS011;24447;43.460;25.744;2023-07-20T00:57:42;12.02;;;4.22;;
38693;SDS011;24447;43.460;25.744;2023-07-20T01:00:08;13.82;;;3.05;;
38693;SDS011;24447;43.460;25.744;2023-07-20T01:02:34;11.00;;;2.70;;
38693;SDS011;24447;43.460;25.744;2023-07-20T01:05:00;8.82;;;2.78;;
38693;SDS011;24447;43.460;25.744;2023-07-20T01:07:27;11.15;;;3.20;;
38693;SDS011;24447;43.460;25.744;2023-07-20T01:10:16;9.52;;;3.60;;
38693;SDS011;24447;43.460;25.744;2023-07-20T01:12:46;4.65;;;3.13;;
38693;SDS011;24447;43.460;25.744;2023-07-20T01:15:13;15.50;;;3.50;;
38693;SDS011;24447;43.460;25.744;2023-07-20T01:17:39;8.02;;;3.13;;
38693;SDS011;24447;43.460;25.744;2023-07-20T01:20:06;8.35;;;3.17;;
38693;SDS011;24447;43.460;25.744;2023-07-20T01:28:37;12.82;;;3.63;;
38693;SDS011;24447;43.460;25.744;2023-07-20T01:31:24;11.52;;;3.78;;
38693;SDS011;24447;43.460;25.744;2023-07-20T01:33:55;13.23;;;3.70;;
38693;SDS011;24447;43.460;25.744;2023-07-20T01:36:26;11.27;;;4.20;;
38693;SDS011;24447;43.460;25.744;2023-07-20T01:38:54;9.38;;;3.15;;
38693;SDS011;24447;43.460;25.744;2023-07-20T01:41:21;10.27;;;3.33;;
38693;SDS011;24447;43.460;25.744;2023-07-20T01:43:48;5.47;;;2.88;;
38693;SDS011;24447;43.460;25.744;2023-07-20T01:46:14;13.40;;;4.22;;
38693;SDS011;24447;43.460;25.744;2023-07-20T01:48:40;10.52;;;3.25;;
38693;SDS011;24447;43.460;25.744;2023-07-20T01:51:06;13.15;;;4.43;;
38693;SDS011;24447;43.460;25.744;2023-07-20T01:53:32;12.48;;;4.25;;
38693;SDS011;24447;43.460;25.744;2023-07-20T01:55:58;11.27;;;3.40;;
38693;SDS011;24447;43.460;25.744;2023-07-20T01:58:24;10.27;;;3.63;;
38693;SDS011;24447;43.460;25.744;2023-07-20T02:00:50;12.77;;;3.38;;
38693;SDS011;24447;43.460;25.744;2023-07-20T02:03:16;11.27;;;3.35;;
38693;SDS011;24447;43.460;25.744;2023-07-20T02:05:42;11.50;;;4.30;;
38693;SDS011;24447;43.460;25.744;2023-07-20T02:08:08;8.73;;;3.20;;
38693;SDS011;24447;43.460;25.744;2023-07-20T02:10:34;12.88;;;2.90;;
38693;SDS011;24447;43.460;25.744;2023-07-20T02:13:00;9.10;;;3.60;;
38693;SDS011;24447;43.460;25.744;2023-07-20T02:15:26;14.65;;;3.70;;
38693;SDS011;24447;43.460;25.744;2023-07-20T02:17:53;19.02;;;4.55;;
38693;SDS011;24447;43.460;25.744;2023-07-20T02:20:19;13.13;;;4.45;;
38693;SDS011;24447;43.460;25.744;2023-07-20T02:22:46;11.10;;;3.50;;
38693;SDS011;24447;43.460;25.744;2023-07-20T02:25:12;8.57;;;3.60;;
38693;SDS011;24447;43.460;25.744;2023-07-20T02:27:38;14.10;;;4.22;;
38693;SDS011;24447;43.460;25.744;2023-07-20T02:30:04;12.15;;;3.97;;
38693;SDS011;24447;43.460;25.744;2023-07-20T02:32:31;12.38;;;4.47;;
38693;SDS011;24447;43.460;25.744;2023-07-20T02:34:57;12.95;;;3.83;;
38693;SDS011;24447;43.460;25.744;2023-07-20T02:37:23;13.52;;;3.60;;
38693;SDS011;24447;43.460;25.744;2023-07-20T02:39:49;9.15;;;3.67;;
38693;SDS011;24447;43.460;25.744;2023-07-20T02:42:15;10.95;;;3.17;;
38693;SDS011;24447;43.460;25.744;2023-07-20T02:44:41;7.80;;;3.00;;
38693;SDS011;24447;43.460;25.744;2023-07-20T02:47:07;6.60;;;3.20;;
38693;SDS011;24447;43.460;25.744;2023-07-20T02:49:34;13.18;;;3.63;;
38693;SDS011;24447;43.460;25.744;2023-07-20T02:52:00;13.23;;;3.80;;
38693;SDS011;24447;43.460;25.744;2023-07-20T02:54:25;10.98;;;3.03;;
38693;SDS011;24447;43.460;25.744;2023-07-20T02:56:51;11.25;;;3.47;;
38693;SDS011;24447;43.460;25.744;2023-07-20T02:59:17;14.73;;;3.17;;
38693;SDS011;24447;43.460;25.744;2023-07-20T03:01:43;9.80;;;2.83;;
38693;SDS011;24447;43.460;25.744;2023-07-20T03:04:09;15.85;;;2.97;;
38693;SDS011;24447;43.460;25.744;2023-07-20T03:06:36;18.63;;;3.75;;
38693;SDS011;24447;43.460;25.744;2023-07-20T03:09:02;17.52;;;4.40;;
38693;SDS011;24447;43.460;25.744;2023-07-20T03:11:28;14.02;;;3.20;;
38693;SDS011;24447;43.460;25.744;2023-07-20T03:13:55;5.57;;;2.92;;
38693;SDS011;24447;43.460;25.744;2023-07-20T03:16:21;10.90;;;2.85;;
38693;SDS011;24447;43.460;25.744;2023-07-20T03:18:50;10.43;;;3.65;;
38693;SDS011;24447;43.460;25.744;2023-07-20T03:21:16;12.45;;;3.75;;
38693;SDS011;24447;43.460;25.744;2023-07-20T03:23:42;12.57;;;4.55;;
38693;SDS011;24447;43.460;25.744;2023-07-20T03:26:08;10.90;;;3.80;;
38693;SDS011;24447;43.460;25.744;2023-07-20T03:28:35;10.57;;;3.38;;
38693;SDS011;24447;43.460;25.744;2023-07-20T03:31:01;19.17;;;4.30;;
38693;SDS011;24447;43.460;25.744;2023-07-20T03:33:28;12.60;;;4.18;;
38693;SDS011;24447;43.460;25.744;2023-07-20T03:35:55;19.88;;;3.60;;
38693;SDS011;24447;43.460;25.744;2023-07-20T03:38:22;13.93;;;4.05;;
38693;SDS011;24447;43.460;25.744;2023-07-20T03:40:55;10.43;;;3.42;;
38693;SDS011;24447;43.460;25.744;2023-07-20T03:43:22;16.55;;;4.22;;
38693;SDS011;24447;43.460;25.744;2023-07-20T03:45:49;15.98;;;3.78;;
38693;SDS011;24447;43.460;25.744;2023-07-20T03:48:16;15.43;;;4.43;;
38693;SDS011;24447;43.460;25.744;2023-07-20T03:50:46;10.40;;;3.50;;
38693;SDS011;24447;43.460;25.744;2023-07-20T03:53:13;8.98;;;3.70;;
38693;SDS011;24447;43.460;25.744;2023-07-20T03:55:40;19.60;;;4.15;;
38693;SDS011;24447;43.460;25.744;2023-07-20T03:58:09;14.13;;;4.78;;
38693;SDS011;24447;43.460;25.744;2023-07-20T04:00:35;12.20;;;3.33;;
38693;SDS011;24447;43.460;25.744;2023-07-20T04:03:01;9.45;;;3.70;;
38693;SDS011;24447;43.460;25.744;2023-07-20T04:05:27;11.00;;;3.50;;
38693;SDS011;24447;43.460;25.744;2023-07-20T04:07:53;10.73;;;3.38;;
38693;SDS011;24447;43.460;25.744;2023-07-20T04:10:19;12.90;;;3.35;;
38693;SDS011;24447;43.460;25.744;2023-07-20T04:12:45;14.50;;;3.75;;
38693;SDS011;24447;43.460;25.744;2023-07-20T04:15:14;9.38;;;3.97;;
38693;SDS011;24447;43.460;25.744;2023-07-20T04:17:40;21.00;;;3.88;;
38693;SDS011;24447;43.460;25.744;2023-07-20T04:20:06;12.73;;;3.65;;
38693;SDS011;24447;43.460;25.744;2023-07-20T04:22:33;16.63;;;4.15;;
38693;SDS011;24447;43.460;25.744;2023-07-20T04:24:59;13.98;;;4.03;;
38693;SDS011;24447;43.460;25.744;2023-07-20T04:27:25;15.07;;;4.22;;
38693;SDS011;24447;43.460;25.744;2023-07-20T04:29:52;8.82;;;3.30;;
38693;SDS011;24447;43.460;25.744;2023-07-20T04:32:18;15.88;;;4.20;;
38693;SDS011;24447;43.460;25.744;2023-07-20T04:34:44;16.50;;;3.97;;
38693;SDS011;24447;43.460;25.744;2023-07-20T04:37:10;16.73;;;3.95;;
38693;SDS011;24447;43.460;25.744;2023-07-20T04:39:35;14.55;;;3.20;;
38693;SDS011;24447;43.460;25.744;2023-07-20T04:42:01;15.13;;;3.63;;
38693;SDS011;24447;43.460;25.744;2023-07-20T04:44:27;17.15;;;4.10;;
38693;SDS011;24447;43.460;25.744;2023-07-20T04:46:53;11.05;;;3.10;;
38693;SDS011;24447;43.460;25.744;2023-07-20T04:49:19;10.25;;;3.10;;
38693;SDS011;24447;43.460;25.744;2023-07-20T04:51:45;13.23;;;3.80;;
38693;SDS011;24447;43.460;25.744;2023-07-20T04:54:11;12.98;;;3.90;;
38693;SDS011;24447;43.460;25.744;2023-07-20T04:56:38;10.50;;;3.20;;
38693;SDS011;24447;43.460;25.744;2023-07-20T04:59:04;9.57;;;2.65;;
38693;SDS011;24447;43.460;25.744;2023-07-20T05:01:30;9.23;;;3.20;;
38693;SDS011;24447;43.460;25.744;2023-07-20T05:03:56;9.20;;;3.40;;
38693;SDS011;24447;43.460;25.744;2023-07-20T05:06:22;13.98;;;3.20;;
38693;SDS011;24447;43.460;25.744;2023-07-20T05:08:48;8.57;;;3.50;;
38693;SDS011;24447;43.460;25.744;2023-07-20T05:11:14;11.40;;;3.47;;
38693;SDS011;24447;43.460;25.744;2023-07-20T05:13:40;14.82;;;3.38;;
38693;SDS011;24447;43.460;25.744;2023-07-20T05:16:06;14.68;;;4.07;;
38693;SDS011;24447;43.460;25.744;2023-07-20T05:18:33;14.00;;;3.15;;
38693;SDS011;24447;43.460;25.744;2023-07-20T05:20:59;8.55;;;3.42;;
38693;SDS011;24447;43.460;25.744;2023-07-20T05:23:25;11.23;;;3.03;;
38693;SDS011;24447;43.460;25.744;2023-07-20T05:25:54;7.47;;;3.08;;
38693;SDS011;24447;43.460;25.744;2023-07-20T05:28:24;10.50;;;3.47;;
38693;SDS011;24447;43.460;25.744;2023-07-20T05:30:51;11.52;;;3.33;;
38693;SDS011;24447;43.460;25.744;2023-07-20T05:33:18;11.27;;;3.53;;
38693;SDS011;24447;43.460;25.744;2023-07-20T05:35:44;8.05;;;2.58;;
38693;SDS011;24447;43.460;25.744;2023-07-20T05:38:10;12.48;;;3.25;;
38693;SDS011;24447;43.460;25.744;2023-07-20T05:40:44;10.70;;;3.17;;
38693;SDS011;24447;43.460;25.744;2023-07-20T05:43:12;15.65;;;3.50;;
38693;SDS011;24447;43.460;25.744;2023-07-20T05:45:41;12.90;;;3.00;;
38693;SDS011;24447;43.460;25.744;2023-07-20T05:48:08;11.57;;;3.85;;
38693;SDS011;24447;43.460;25.744;2023-07-20T05:50:36;13.32;;;3.13;;
38693;SDS011;24447;43.460;25.744;2023-07-20T05:53:08;8.95;;;3.35;;
38693;SDS011;24447;43.460;25.744;2023-07-20T05:55:34;8.80;;;3.22;;
38693;SDS011;24447;43.460;25.744;2023-07-20T05:58:00;9.70;;;3.67;;
38693;SDS011;24447;43.460;25.744;2023-07-20T06:00:26;13.05;;;4.18;;
38693;SDS011;24447;43.460;25.744;2023-07-20T06:02:53;12.10;;;3.05;;
38693;SDS011;24447;43.460;25.744;2023-07-20T06:05:20;13.05;;;4.80;;
38693;SDS011;24447;43.460;25.744;2023-07-20T06:07:48;9.55;;;3.72;;
38693;SDS011;24447;43.460;25.744;2023-07-20T06:10:14;12.02;;;4.15;;
38693;SDS011;24447;43.460;25.744;2023-07-20T06:12:40;10.40;;;3.95;;
38693;SDS011;24447;43.460;25.744;2023-07-20T06:15:12;11.80;;;4.15;;
38693;SDS011;24447;43.460;25.744;2023-07-20T06:17:50;8.52;;;2.75;;
38693;SDS011;24447;43.460;25.744;2023-07-20T06:20:16;12.15;;;3.15;;
38693;SDS011;24447;43.460;25.744;2023-07-20T06:22:44;12.05;;;3.55;;
38693;SDS011;24447;43.460;25.744;2023-07-20T06:25:10;11.23;;;2.80;;
38693;SDS011;24447;43.460;25.744;2023-07-20T06:27:36;7.88;;;3.45;;
38693;SDS011;24447;43.460;25.744;2023-07-20T06:30:02;10.85;;;3.30;;
38693;SDS011;24447;43.460;25.744;2023-07-20T06:32:28;9.52;;;3.15;;
38693;SDS011;24447;43.460;25.744;2023-07-20T06:34:54;10.25;;;3.35;;
38693;SDS011;24447;43.460;25.744;2023-07-20T06:37:20;9.35;;;3.20;;
38693;SDS011;24447;43.460;25.744;2023-07-20T06:39:46;14.10;;;3.08;;
38693;SDS011;24447;43.460;25.744;2023-07-20T06:42:12;19.85;;;4.80;;
38693;SDS011;24447;43.460;25.744;2023-07-20T06:44:39;12.75;;;3.28;;
38693;SDS011;24447;43.460;25.744;2023-07-20T06:47:05;8.45;;;3.00;;
38693;SDS011;24447;43.460;25.744;2023-07-20T06:49:31;8.68;;;3.67;;
38693;SDS011;24447;43.460;25.744;2023-07-20T06:51:57;9.32;;;3.42;;
38693;SDS011;24447;43.460;25.744;2023-07-20T06:54:23;7.88;;;3.70;;
38693;SDS011;24447;43.460;25.744;2023-07-20T06:56:49;8.77;;;3.42;;
38693;SDS011;24447;43.460;25.744;2023-07-20T06:59:15;7.18;;;2.88;;
38693;SDS011;24447;43.460;25.744;2023-07-20T07:01:41;8.90;;;3.17;;
38693;SDS011;24447;43.460;25.744;2023-07-20T07:04:07;9.82;;;2.83;;
38693;SDS011;24447;43.460;25.744;2023-07-20T07:06:33;4.28;;;3.10;;
38693;SDS011;24447;43.460;25.744;2023-07-20T07:08:59;10.40;;;3.33;;
38693;SDS011;24447;43.460;25.744;2023-07-20T07:11:25;9.35;;;3.33;;
38693;SDS011;24447;43.460;25.744;2023-07-20T07:13:51;7.53;;;2.90;;
38693;SDS011;24447;43.460;25.744;2023-07-20T07:16:17;9.82;;;3.20;;
38693;SDS011;24447;43.460;25.744;2023-07-20T07:18:46;10.25;;;3.63;;
38693;SDS011;24447;43.460;25.744;2023-07-20T07:21:12;9.07;;;3.75;;
38693;SDS011;24447;43.460;25.744;2023-07-20T07:23:38;8.43;;;3.08;;
38693;SDS011;24447;43.460;25.744;2023-07-20T07:26:05;8.23;;;2.95;;
38693;SDS011;24447;43.460;25.744;2023-07-20T07:28:31;10.10;;;3.25;;
38693;SDS011;24447;43.460;25.744;2023-07-20T07:30:57;8.25;;;3.22;;
38693;SDS011;24447;43.460;25.744;2023-07-20T07:33:23;8.13;;;3.00;;
38693;SDS011;24447;43.460;25.744;2023-07-20T07:35:49;10.55;;;3.10;;
38693;SDS011;24447;43.460;25.744;2023-07-20T07:38:17;6.75;;;3.22;;
38693;SDS011;24447;43.460;25.744;2023-07-20T07:40:44;9.32;;;2.85;;
38693;SDS011;24447;43.460;25.744;2023-07-20T07:43:10;7.63;;;3.10;;
38693;SDS011;24447;43.460;25.744;2023-07-20T07:45:36;8.07;;;2.83;;
38693;SDS011;24447;43.460;25.744;2023-07-20T07:48:03;7.60;;;2.97;;
38693;SDS011;24447;43.460;25.744;2023-07-20T07:50:29;7.32;;;2.60;;
38693;SDS011;24447;43.460;25.744;2023-07-20T07:52:55;10.32;;;2.70;;
38693;SDS011;24447;43.460;25.744;2023-07-20T07:55:21;9.05;;;3.40;;
38693;SDS011;24447;43.460;25.744;2023-07-20T07:57:47;6.00;;;2.80;;
38693;SDS011;24447;43.460;25.744;2023-07-20T08:00:14;6.28;;;2.83;;
38693;SDS011;24447;43.460;25.744;2023-07-20T08:02:41;5.05;;;2.78;;
38693;SDS011;24447;43.460;25.744;2023-07-20T08:05:07;12.80;;;3.78;;
38693;SDS011;24447;43.460;25.744;2023-07-20T08:07:34;9.70;;;3.40;;
38693;SDS011;24447;43.460;25.744;2023-07-20T08:09:59;10.05;;;3.08;;
38693;SDS011;24447;43.460;25.744;2023-07-20T08:12:26;6.72;;;2.90;;
38693;SDS011;24447;43.460;25.744;2023-07-20T08:14:52;5.30;;;2.80;;
38693;SDS011;24447;43.460;25.744;2023-07-20T08:17:18;6.57;;;3.20;;
38693;SDS011;24447;43.460;25.744;2023-07-20T08:19:44;8.48;;;3.70;;
38693;SDS011;24447;43.460;25.744;2023-07-20T08:22:11;9.18;;;2.65;;
38693;SDS011;24447;43.460;25.744;2023-07-20T08:24:41;10.38;;;3.03;;
38693;SDS011;24447;43.460;25.744;2023-07-20T08:27:07;7.75;;;3.47;;
38693;SDS011;24447;43.460;25.744;2023-07-20T08:29:34;4.82;;;2.67;;
38693;SDS011;24447;43.460;25.744;2023-07-20T08:32:00;9.88;;;3.03;;
38693;SDS011;24447;43.460;25.744;2023-07-20T08:34:26;7.70;;;2.70;;
38693;SDS011;24447;43.460;25.744;2023-07-20T08:36:52;14.25;;;3.42;;
38693;SDS011;24447;43.460;25.744;2023-07-20T08:39:18;7.97;;;3.75;;
38693;SDS011;24447;43.460;25.744;2023-07-20T08:41:44;6.10;;;3.20;;
38693;SDS011;24447;43.460;25.744;2023-07-20T08:44:10;6.13;;;3.05;;
38693;SDS011;24447;43.460;25.744;2023-07-20T08:46:38;8.30;;;2.97;;
38693;SDS011;24447;43.460;25.744;2023-07-20T08:49:04;7.47;;;3.08;;
38693;SDS011;24447;43.460;25.744;2023-07-20T08:51:30;8.32;;;3.03;;
38693;SDS011;24447;43.460;25.744;2023-07-20T08:53:57;7.40;;;3.28;;
38693;SDS011;24447;43.460;25.744;2023-07-20T08:56:25;8.60;;;3.40;;
38693;SDS011;24447;43.460;25.744;2023-07-20T08:58:52;5.55;;;3.15;;
38693;SDS011;24447;43.460;25.744;2023-07-20T09:01:19;8.60;;;2.78;;
38693;SDS011;24447;43.460;25.744;2023-07-20T09:03:45;10.38;;;4.60;;
38693;SDS011;24447;43.460;25.744;2023-07-20T09:06:12;8.13;;;3.10;;
38693;SDS011;24447;43.460;25.744;2023-07-20T09:08:39;10.18;;;3.63;;
38693;SDS011;24447;43.460;25.744;2023-07-20T09:11:11;7.93;;;3.80;;
38693;SDS011;24447;43.460;25.744;2023-07-20T09:13:38;9.90;;;3.55;;
38693;SDS011;24447;43.460;25.744;2023-07-20T09:16:04;13.07;;;3.38;;
38693;SDS011;24447;43.460;25.744;2023-07-20T09:18:31;9.13;;;3.22;;
38693;SDS011;24447;43.460;25.744;2023-07-20T09:21:02;6.53;;;3.10;;
38693;SDS011;24447;43.460;25.744;2023-07-20T09:23:29;9.32;;;3.20;;
38693;SDS011;24447;43.460;25.744;2023-07-20T09:26:14;8.15;;;3.85;;
38693;SDS011;24447;43.460;25.744;2023-07-20T09:28:44;5.57;;;2.78;;
38693;SDS011;24447;43.460;25.744;2023-07-20T09:31:21;9.82;;;3.80;;
38693;SDS011;24447;43.460;25.744;2023-07-20T09:33:48;6.78;;;2.95;;
38693;SDS011;24447;43.460;25.744;2023-07-20T09:36:14;10.25;;;3.45;;
38693;SDS011;24447;43.460;25.744;2023-07-20T09:38:44;11.88;;;3.58;;
38693;SDS011;24447;43.460;25.744;2023-07-20T09:43:40;12.77;;;3.05;;
38693;SDS011;24447;43.460;25.744;2023-07-20T09:46:07;6.85;;;3.47;;
38693;SDS011;24447;43.460;25.744;2023-07-20T09:48:33;8.70;;;3.38;;
38693;SDS011;24447;43.460;25.744;2023-07-20T09:50:59;7.80;;;3.33;;
38693;SDS011;24447;43.460;25.744;2023-07-20T09:53:25;7.90;;;3.00;;
38693;SDS011;24447;43.460;25.744;2023-07-20T09:55:52;6.35;;;2.75;;
38693;SDS011;24447;43.460;25.744;2023-07-20T09:58:19;13.25;;;4.25;;
38693;SDS011;24447;43.460;25.744;2023-07-20T10:00:45;10.13;;;3.47;;
38693;SDS011;24447;43.460;25.744;2023-07-20T10:03:14;6.80;;;3.40;;
38693;SDS011;24447;43.460;25.744;2023-07-20T10:05:46;5.18;;;3.05;;
38693;SDS011;24447;43.460;25.744;2023-07-20T10:08:14;11.45;;;3.15;;
38693;SDS011;24447;43.460;25.744;2023-07-20T10:10:41;9.93;;;2.90;;
38693;SDS011;24447;43.460;25.744;2023-07-20T10:13:10;7.53;;;2.80;;
38693;SDS011;24447;43.460;25.744;2023-07-20T10:15:46;6.80;;;2.75;;
38693;SDS011;24447;43.460;25.744;2023-07-20T10:18:14;6.60;;;3.13;;
38693;SDS011;24447;43.460;25.744;2023-07-20T10:21:02;7.50;;;3.10;;
38693;SDS011;24447;43.460;25.744;2023-07-20T10:23:29;6.75;;;3.00;;
38693;SDS011;24447;43.460;25.744;2023-07-20T10:25:55;9.75;;;3.78;;
38693;SDS011;24447;43.460;25.744;2023-07-20T10:28:22;6.07;;;2.78;;
38693;SDS011;24447;43.460;25.744;2023-07-20T10:30:48;9.55;;;3.28;;
38693;SDS011;24447;43.460;25.744;2023-07-20T10:33:15;7.68;;;3.10;;
38693;SDS011;24447;43.460;25.744;2023-07-20T10:36:01;8.82;;;3.15;;
38693;SDS011;24447;43.460;25.744;2023-07-20T10:43:44;8.23;;;2.92;;
38693;SDS011;24447;43.460;25.744;2023-07-20T10:46:12;7.93;;;3.13;;
38693;SDS011;24447;43.460;25.744;2023-07-20T10:51:29;6.55;;;3.08;;
38693;SDS011;24447;43.460;25.744;2023-07-20T10:53:56;8.43;;;3.30;;
38693;SDS011;24447;43.460;25.744;2023-07-20T10:56:25;6.65;;;3.20;;
38693;SDS011;24447;43.460;25.744;2023-07-20T10:59:00;5.90;;;3.25;;
38693;SDS011;24447;43.460;25.744;2023-07-20T11:01:30;11.52;;;3.00;;
38693;SDS011;24447;43.460;25.744;2023-07-20T11:04:02;9.48;;;3.60;;
38693;SDS011;24447;43.460;25.744;2023-07-20T11:06:33;7.97;;;2.95;;
38693;SDS011;24447;43.460;25.744;2023-07-20T11:11:33;10.00;;;3.50;;
38693;SDS011;24447;43.460;25.744;2023-07-20T11:14:01;6.75;;;3.25;;
38693;SDS011;24447;43.460;25.744;2023-07-20T11:16:38;8.32;;;3.45;;
38693;SDS011;24447;43.460;25.744;2023-07-20T11:19:06;11.02;;;2.97;;
38693;SDS011;24447;43.460;25.744;2023-07-20T11:21:40;9.93;;;3.65;;
38693;SDS011;24447;43.460;25.744;2023-07-20T11:24:07;6.57;;;3.38;;
38693;SDS011;24447;43.460;25.744;2023-07-20T11:26:49;10.75;;;3.25;;
38693;SDS011;24447;43.460;25.744;2023-07-20T11:29:16;10.27;;;3.05;;
38693;SDS011;24447;43.460;25.744;2023-07-20T11:31:44;6.68;;;3.08;;
38693;SDS011;24447;43.460;25.744;2023-07-20T11:34:11;6.53;;;3.08;;
38693;SDS011;24447;43.460;25.744;2023-07-20T11:36:50;8.13;;;2.90;;
38693;SDS011;24447;43.460;25.744;2023-07-20T11:39:17;9.80;;;2.97;;
38693;SDS011;24447;43.460;25.744;2023-07-20T11:41:50;21.10;;;4.15;;
38693;SDS011;24447;43.460;25.744;2023-07-20T11:44:18;4.47;;;3.20;;
38693;SDS011;24447;43.460;25.744;2023-07-20T11:46:46;11.88;;;4.10;;
38693;SDS011;24447;43.460;25.744;2023-07-20T11:49:12;12.07;;;3.60;;
38693;SDS011;24447;43.460;25.744;2023-07-20T11:51:39;5.63;;;2.92;;
38693;SDS011;24447;43.460;25.744;2023-07-20T11:54:07;7.97;;;2.95;;
38693;SDS011;24447;43.460;25.744;2023-07-20T11:56:33;8.32;;;3.20;;
38693;SDS011;24447;43.460;25.744;2023-07-20T11:58:59;9.75;;;3.22;;
38693;SDS011;24447;43.460;25.744;2023-07-20T12:01:28;8.00;;;2.53;;
38693;SDS011;24447;43.460;25.744;2023-07-20T12:03:56;5.37;;;2.50;;
38693;SDS011;24447;43.460;25.744;2023-07-20T12:06:23;4.15;;;2.53;;
38693;SDS011;24447;43.460;25.744;2023-07-20T12:08:50;11.90;;;3.58;;
38693;SDS011;24447;43.460;25.744;2023-07-20T12:11:35;7.93;;;3.00;;
38693;SDS011;24447;43.460;25.744;2023-07-20T12:14:02;5.30;;;2.63;;
38693;SDS011;24447;43.460;25.744;2023-07-20T12:16:30;9.02;;;2.53;;
38693;SDS011;24447;43.460;25.744;2023-07-20T12:19:00;8.20;;;2.42;;
38693;SDS011;24447;43.460;25.744;2023-07-20T12:21:27;5.00;;;2.17;;
38693;SDS011;24447;43.460;25.744;2023-07-20T12:23:54;10.68;;;2.70;;
38693;SDS011;24447;43.460;25.744;2023-07-20T12:26:22;8.40;;;3.10;;
38693;SDS011;24447;43.460;25.744;2023-07-20T12:28:49;5.03;;;2.40;;
38693;SDS011;24447;43.460;25.744;2023-07-20T12:31:15;6.88;;;3.00;;
38693;SDS011;24447;43.460;25.744;2023-07-20T12:33:41;5.13;;;2.38;;
38693;SDS011;24447;43.460;25.744;2023-07-20T12:36:08;6.78;;;2.45;;
38693;SDS011;24447;43.460;25.744;2023-07-20T12:38:34;4.80;;;2.45;;
38693;SDS011;24447;43.460;25.744;2023-07-20T12:41:00;8.10;;;3.08;;
38693;SDS011;24447;43.460;25.744;2023-07-20T12:43:26;7.60;;;2.33;;
38693;SDS011;24447;43.460;25.744;2023-07-20T12:45:53;6.18;;;2.90;;
38693;SDS011;24447;43.460;25.744;2023-07-20T12:48:19;6.03;;;2.40;;
38693;SDS011;24447;43.460;25.744;2023-07-20T12:50:45;7.13;;;2.50;;
38693;SDS011;24447;43.460;25.744;2023-07-20T12:53:11;3.47;;;1.90;;
38693;SDS011;24447;43.460;25.744;2023-07-20T12:55:38;7.07;;;2.50;;
38693;SDS011;24447;43.460;25.744;2023-07-20T12:58:05;5.80;;;1.90;;
38693;SDS011;24447;43.460;25.744;2023-07-20T13:00:31;12.57;;;2.50;;
38693;SDS011;24447;43.460;25.744;2023-07-20T13:02:57;6.30;;;3.15;;
38693;SDS011;24447;43.460;25.744;2023-07-20T13:05:23;9.95;;;2.55;;
38693;SDS011;24447;43.460;25.744;2023-07-20T13:07:49;8.52;;;2.70;;
38693;SDS011;24447;43.460;25.744;2023-07-20T13:10:15;3.28;;;2.03;;
38693;SDS011;24447;43.460;25.744;2023-07-20T13:12:41;8.95;;;2.88;;
38693;SDS011;24447;43.460;25.744;2023-07-20T13:15:08;7.25;;;3.20;;
38693;SDS011;24447;43.460;25.744;2023-07-20T13:17:35;4.22;;;2.22;;
38693;SDS011;24447;43.460;25.744;2023-07-20T13:20:02;3.63;;;1.70;;
38693;SDS011;24447;43.460;25.744;2023-07-20T13:22:29;7.43;;;3.05;;
38693;SDS011;24447;43.460;25.744;2023-07-20T13:24:56;5.50;;;2.78;;
38693;SDS011;24447;43.460;25.744;2023-07-20T13:27:21;6.75;;;3.13;;
38693;SDS011;24447;43.460;25.744;2023-07-20T13:29:47;5.55;;;2.25;;
38693;SDS011;24447;43.460;25.744;2023-07-20T13:32:14;5.68;;;2.10;;
38693;SDS011;24447;43.460;25.744;2023-07-20T13:34:40;3.95;;;2.08;;
38693;SDS011;24447;43.460;25.744;2023-07-20T13:37:06;4.95;;;2.20;;
38693;SDS011;24447;43.460;25.744;2023-07-20T13:39:32;5.93;;;2.50;;
38693;SDS011;24447;43.460;25.744;2023-07-20T13:41:58;8.05;;;1.98;;
38693;SDS011;24447;43.460;25.744;2023-07-20T13:44:26;5.28;;;2.58;;
38693;SDS011;24447;43.460;25.744;2023-07-20T13:46:52;5.55;;;2.42;;
38693;SDS011;24447;43.460;25.744;2023-07-20T13:49:18;4.97;;;1.92;;
38693;SDS011;24447;43.460;25.744;2023-07-20T13:51:44;7.88;;;2.35;;
38693;SDS011;24447;43.460;25.744;2023-07-20T13:54:11;11.25;;;2.22;;
38693;SDS011;24447;43.460;25.744;2023-07-20T13:56:37;5.57;;;2.13;;
38693;SDS011;24447;43.460;25.744;2023-07-20T13:59:03;5.85;;;2.55;;
38693;SDS011;24447;43.460;25.744;2023-07-20T14:01:29;8.65;;;2.42;;
38693;SDS011;24447;43.460;25.744;2023-07-20T14:03:58;5.55;;;2.13;;
38693;SDS011;24447;43.460;25.744;2023-07-20T14:06:23;6.38;;;1.98;;
38693;SDS011;24447;43.460;25.744;2023-07-20T14:08:49;6.88;;;2.67;;
38693;SDS011;24447;43.460;25.744;2023-07-20T14:11:15;6.25;;;2.20;;
38693;SDS011;24447;43.460;25.744;2023-07-20T14:13:42;6.18;;;2.30;;
38693;SDS011;24447;43.460;25.744;2023-07-20T14:16:08;5.15;;;2.67;;
38693;SDS011;24447;43.460;25.744;2023-07-20T14:18:34;5.40;;;2.17;;
38693;SDS011;24447;43.460;25.744;2023-07-20T14:21:00;12.70;;;2.20;;
38693;SDS011;24447;43.460;25.744;2023-07-20T14:23:28;8.43;;;2.50;;
38693;SDS011;24447;43.460;25.744;2023-07-20T14:25:54;6.68;;;2.13;;
38693;SDS011;24447;43.460;25.744;2023-07-20T14:28:20;8.63;;;3.47;;
38693;SDS011;24447;43.460;25.744;2023-07-20T14:30:46;11.52;;;2.58;;
38693;SDS011;24447;43.460;25.744;2023-07-20T14:33:12;5.95;;;2.00;;
38693;SDS011;24447;43.460;25.744;2023-07-20T14:35:38;5.65;;;2.58;;
38693;SDS011;24447;43.460;25.744;2023-07-20T14:38:04;9.75;;;2.45;;
38693;SDS011;24447;43.460;25.744;2023-07-20T14:40:30;6.13;;;2.58;;
38693;SDS011;24447;43.460;25.744;2023-07-20T14:42:56;13.00;;;2.47;;
38693;SDS011;24447;43.460;25.744;2023-07-20T14:45:22;6.63;;;3.50;;
38693;SDS011;24447;43.460;25.744;2023-07-20T14:47:48;8.93;;;2.42;;